KSQI/SQI METAR and TAF weather

Enter ICAO airport designator
Station Type Date Time Source
KSQI METAR 2019/02/16 06:56 UTC NOAA

KSQI 160656Z AUTO 27004KT 10SM CLR M13/M15 A3013 RMK AO2 SLP228 T11281150 FZRANO


Station Type Date Time Source
KSQI Decoded METAR 2019/02/16 06:56 UTC NOAA

Sterling Rockfalls, IL, United States (KSQI) 41-45N 089-40W
Feb 16, 2019 - 01:56 AM EST / 2019.02.16 0656 UTC
Wind: from the W (270 degrees) at 5 MPH (4 KT):0
Visibility: 10 mile(s):0
Sky conditions: clear
Temperature: 9.0 F (-12.8 C)
Windchill: 0 F (-18 C):1
Dew Point: 5.0 F (-15.0 C)
Relative Humidity: 83%
Pressure (altimeter): 30.13 in. Hg (1020 hPa)
ob: KSQI 160656Z AUTO 27004KT 10SM CLR M13/M15 A3013 RMK AO2 SLP228 T11281150 FZRANO
cycle: 7

Station Type Date Time Source
KSQI TAF UTC NOAA

Error!


Example: see airport list